Time;durP1;ratioP1;P1;durP2;ratioP2;P2;SDS_P1;SDS_P2;PMS_P1;PMS_P2;Temp;Humidity;BMP_temperature;BMP_pressure;BME280_temperature;BME280_humidity;BME280_pressure;Samples;Min_cycle;Max_cycle;Signal;HPM_P1;HPM_P2
2022/07/30 00:02:02;;;;;;;13.18;7.40;;;16.70;99.90;;;;;;5075533;28;20506;-62
2022/07/30 00:04:28;;;;;;;11.85;7.82;;;16.80;99.90;;;;;;5075344;28;20037;-60
2022/07/30 00:06:54;;;;;;;11.68;7.85;;;16.70;99.90;;;;;;5075245;28;20041;-61
2022/07/30 00:09:19;;;;;;;13.60;9.35;;;16.80;99.90;;;;;;5075327;28;20131;-61
2022/07/30 00:11:45;;;;;;;16.05;9.30;;;16.70;99.90;;;;;;5075376;28;20120;-61
2022/07/30 00:14:11;;;;;;;12.73;8.57;;;16.70;99.90;;;;;;5075142;28;20094;-62
2022/07/30 00:16:37;;;;;;;16.27;9.38;;;16.70;99.90;;;;;;5075063;28;20044;-61
2022/07/30 00:19:03;;;;;;;13.32;9.18;;;16.70;99.90;;;;;;5075016;28;20036;-61
2022/07/30 00:21:29;;;;;;;11.63;7.93;;;16.70;99.90;;;;;;5056233;28;20087;-60
2022/07/30 00:23:54;;;;;;;10.45;7.65;;;16.60;99.90;;;;;;5055003;28;20036;-61
2022/07/30 00:26:20;;;;;;;9.45;7.32;;;16.50;99.90;;;;;;5055091;28;20041;-62
2022/07/30 00:28:45;;;;;;;14.82;7.70;;;16.50;99.90;;;;;;5054851;28;20080;-63
2022/07/30 00:31:11;;;;;;;14.70;8.18;;;16.40;99.90;;;;;;5054921;28;20090;-61
2022/07/30 00:33:37;;;;;;;10.73;6.72;;;16.40;99.90;;;;;;5054704;28;20045;-61
2022/07/30 00:36:03;;;;;;;13.90;7.85;;;16.40;99.90;;;;;;5054816;28;20103;-61
2022/07/30 00:38:28;;;;;;;12.63;7.68;;;16.30;99.90;;;;;;5065290;28;20382;-62
2022/07/30 00:40:54;;;;;;;13.65;8.57;;;16.30;99.90;;;;;;5074904;28;20036;-61
2022/07/30 00:43:20;;;;;;;13.55;8.60;;;16.30;99.90;;;;;;5074909;28;20043;-61
2022/07/30 00:45:46;;;;;;;12.55;9.43;;;16.30;99.90;;;;;;5074774;28;20440;-61
2022/07/30 00:48:13;;;;;;;13.07;10.00;;;16.20;99.90;;;;;;5074702;28;20725;-61
2022/07/30 00:50:39;;;;;;;13.90;9.32;;;16.20;99.90;;;;;;5074476;28;20473;-61
2022/07/30 00:53:05;;;;;;;13.10;9.55;;;16.10;99.90;;;;;;5074427;28;20062;-61
2022/07/30 00:55:32;;;;;;;11.65;8.90;;;16.20;99.90;;;;;;5073149;28;20028;-61
2022/07/30 00:57:58;;;;;;;14.90;8.93;;;16.10;99.90;;;;;;5074585;28;20047;-61
2022/07/30 01:00:24;;;;;;;12.52;9.45;;;16.10;99.90;;;;;;5074190;28;20075;-61
2022/07/30 01:02:49;;;;;;;13.65;9.52;;;16.10;99.90;;;;;;5074305;28;20075;-61
2022/07/30 01:05:15;;;;;;;13.32;8.88;;;16.10;99.90;;;;;;5074272;28;20040;-61
2022/07/30 01:07:42;;;;;;;15.30;9.77;;;16.10;99.90;;;;;;5074218;28;20457;-61
2022/07/30 01:10:10;;;;;;;11.82;8.32;;;16.10;99.90;;;;;;5074414;28;20113;-61
2022/07/30 01:12:36;;;;;;;13.65;8.77;;;16.00;99.90;;;;;;5074221;28;20055;-61
2022/07/30 01:15:04;;;;;;;12.50;9.43;;;15.90;99.90;;;;;;5074034;28;20036;-61
2022/07/30 01:17:30;;;;;;;13.40;8.65;;;16.00;99.90;;;;;;5073714;28;20047;-61
2022/07/30 01:20:02;;;;;;;13.70;9.65;;;15.90;99.90;;;;;;5067722;28;20041;-60
2022/07/30 01:22:33;;;;;;;13.30;9.25;;;15.90;99.90;;;;;;5054076;28;20124;-61
2022/07/30 01:25:20;;;;;;;13.48;9.40;;;15.80;99.90;;;;;;5054114;28;20055;-61
2022/07/30 01:28:06;;;;;;;13.35;9.38;;;15.80;99.90;;;;;;5053849;28;20051;-61
2022/07/30 01:30:35;;;;;;;12.35;8.80;;;15.80;99.90;;;;;;5052518;28;20123;-61
2022/07/30 01:33:03;;;;;;;12.95;9.45;;;15.80;99.90;;;;;;5069135;28;20178;-61
2022/07/30 01:35:31;;;;;;;12.05;9.02;;;15.80;99.90;;;;;;5053528;28;20068;-60
2022/07/30 01:37:59;;;;;;;12.90;9.02;;;15.80;99.90;;;;;;5060348;28;20125;-61
2022/07/30 01:40:27;;;;;;;12.00;8.52;;;15.80;99.90;;;;;;5073550;28;20142;-61
2022/07/30 01:42:56;;;;;;;12.85;8.68;;;15.70;99.90;;;;;;5073453;28;20044;-61
2022/07/30 01:45:27;;;;;;;13.23;8.88;;;15.70;99.90;;;;;;5073669;28;20361;-61
2022/07/30 01:47:59;;;;;;;12.88;9.40;;;15.70;99.90;;;;;;5073619;28;20059;-61
2022/07/30 01:50:26;;;;;;;12.45;9.27;;;15.70;99.90;;;;;;5072622;28;20071;-61
2022/07/30 01:52:53;;;;;;;11.63;8.52;;;15.70;99.90;;;;;;5072220;28;20461;-61
2022/07/30 01:55:26;;;;;;;11.65;8.18;;;15.60;99.90;;;;;;5073234;28;20403;-61
2022/07/30 01:57:54;;;;;;;11.52;8.70;;;15.60;99.90;;;;;;5073272;28;20044;-61
2022/07/30 02:00:21;;;;;;;13.85;8.32;;;15.60;99.90;;;;;;5073204;28;20044;-60
2022/07/30 02:02:47;;;;;;;21.73;10.52;;;15.60;99.90;;;;;;5073142;28;20139;-61
2022/07/30 02:05:13;;;;;;;12.02;8.20;;;15.50;99.90;;;;;;5073159;28;20456;-61
2022/07/30 02:08:02;;;;;;;10.95;7.68;;;15.50;99.90;;;;;;5072995;28;20036;-61
2022/07/30 02:10:35;;;;;;;13.95;8.98;;;15.20;99.90;;;;;;5073042;28;20393;-61
2022/07/30 02:13:04;;;;;;;10.30;7.75;;;15.20;99.90;;;;;;5072775;28;20043;-62
2022/07/30 02:16:02;;;;;;;10.60;7.35;;;15.20;99.90;;;;;;5072670;28;20496;-61
2022/07/30 02:18:33;;;;;;;9.73;6.68;;;15.20;99.90;;;;;;5049682;28;20143;-61
2022/07/30 02:21:07;;;;;;;9.35;6.20;;;15.20;99.90;;;;;;5057978;28;20037;-61
2022/07/30 02:23:42;;;;;;;11.43;6.28;;;15.10;99.90;;;;;;5052905;28;20106;-61
2022/07/30 02:26:14;;;;;;;9.90;7.38;;;15.20;99.90;;;;;;5052829;28;20389;-61
2022/07/30 02:28:42;;;;;;;;;;;15.20;99.90;;;;;;5053060;28;20041;-61
2022/07/30 02:31:10;;;;;;;11.65;8.25;;;15.20;99.90;;;;;;5052918;28;20316;-61
2022/07/30 02:33:40;;;;;;;12.15;8.15;;;15.20;99.90;;;;;;5052524;28;20539;-61
2022/07/30 02:36:08;;;;;;;11.50;7.88;;;15.10;99.90;;;;;;5052671;28;20098;-61
2022/07/30 02:38:35;;;;;;;12.13;7.82;;;15.10;99.90;;;;;;5062839;28;20048;-62
2022/07/30 02:41:03;;;;;;;10.15;6.72;;;15.10;99.90;;;;;;5072543;28;20032;-61
2022/07/30 02:43:31;;;;;;;13.80;7.68;;;15.00;99.90;;;;;;5072392;28;20119;-61
2022/07/30 02:46:00;;;;;;;11.35;7.72;;;15.00;99.90;;;;;;5072638;28;20502;-61
2022/07/30 02:48:26;;;;;;;13.88;10.35;;;15.00;99.90;;;;;;5072493;28;20036;-62
2022/07/30 02:50:54;;;;;;;15.30;12.25;;;14.90;99.90;;;;;;5072409;28;20048;-62
2022/07/30 02:53:21;;;;;;;14.45;11.93;;;14.80;99.90;;;;;;5072306;28;20040;-60
2022/07/30 02:55:49;;;;;;;15.60;12.32;;;14.40;99.90;;;;;;5072314;28;20404;-61
2022/07/30 02:58:22;;;;;;;16.15;12.75;;;14.40;99.90;;;;;;5072411;28;20046;-61
2022/07/30 03:00:49;;;;;;;15.20;11.80;;;14.60;99.90;;;;;;5072439;28;20032;-61
2022/07/30 03:03:16;;;;;;;16.83;12.43;;;14.70;99.90;;;;;;5072018;28;20493;-60
2022/07/30 03:05:43;;;;;;;16.75;12.98;;;14.80;99.90;;;;;;5072143;28;20550;-61
2022/07/30 03:08:10;;;;;;;18.77;13.30;;;14.80;99.90;;;;;;5072155;28;20070;-60
2022/07/30 03:10:37;;;;;;;18.48;14.32;;;14.80;99.90;;;;;;5072042;28;20040;-63
2022/07/30 03:13:06;;;;;;;18.73;14.25;;;14.80;99.90;;;;;;5072258;28;20036;-63
2022/07/30 03:15:34;;;;;;;18.15;13.70;;;15.00;99.90;;;;;;5072089;28;20047;-63
2022/07/30 03:18:01;;;;;;;17.80;12.48;;;14.90;99.90;;;;;;5072137;28;20041;-61
2022/07/30 03:20:31;;;;;;;15.23;12.20;;;15.00;99.90;;;;;;5061471;28;20112;-60
2022/07/30 03:22:58;;;;;;;16.30;13.15;;;14.90;99.90;;;;;;5051852;28;20107;-61
2022/07/30 03:25:26;;;;;;;15.20;13.05;;;15.00;99.90;;;;;;5052204;28;20120;-61
2022/07/30 03:27:54;;;;;;;15.90;12.30;;;15.00;99.90;;;;;;5052019;28;20432;-61
2022/07/30 03:30:21;;;;;;;18.13;12.85;;;15.10;99.90;;;;;;5051893;28;20048;-61
2022/07/30 03:32:48;;;;;;;16.02;12.52;;;15.00;99.90;;;;;;5051688;28;20045;-60
2022/07/30 03:35:14;;;;;;;18.17;12.60;;;15.00;99.90;;;;;;5051689;28;20404;-61
2022/07/30 03:37:41;;;;;;;15.98;12.05;;;15.00;99.90;;;;;;5055938;28;20051;-61
2022/07/30 03:40:07;;;;;;;16.30;11.57;;;15.00;99.90;;;;;;5071980;28;20045;-61
2022/07/30 03:42:34;;;;;;;16.25;11.88;;;14.90;99.90;;;;;;5070587;28;20500;-61
2022/07/30 03:45:02;;;;;;;13.93;10.90;;;14.80;99.90;;;;;;5071828;28;20488;-61
2022/07/30 03:47:31;;;;;;;14.20;11.77;;;14.90;99.90;;;;;;5070602;28;20040;-61
2022/07/30 03:49:57;;;;;;;14.77;11.60;;;14.90;99.90;;;;;;5071802;28;20041;-61
2022/07/30 03:52:24;;;;;;;17.70;12.90;;;14.90;99.90;;;;;;5071840;28;20075;-62
2022/07/30 03:54:50;;;;;;;17.20;12.73;;;14.90;99.90;;;;;;5071925;28;20400;-62
2022/07/30 03:57:16;;;;;;;17.13;13.27;;;15.00;99.90;;;;;;5071794;28;20116;-61
2022/07/30 03:59:42;;;;;;;17.33;12.70;;;14.90;99.90;;;;;;5071759;28;20151;-61
2022/07/30 04:02:07;;;;;;;15.82;12.02;;;14.90;99.90;;;;;;5071742;28;20067;-61
2022/07/30 04:04:33;;;;;;;16.48;13.63;;;14.90;99.90;;;;;;5071513;28;20520;-62
2022/07/30 04:06:59;;;;;;;18.95;13.07;;;14.90;99.90;;;;;;5071779;28;20503;-60
2022/07/30 04:09:24;;;;;;;16.83;12.27;;;14.90;99.90;;;;;;5070436;28;20485;-62
2022/07/30 04:11:50;;;;;;;16.58;12.75;;;14.80;99.90;;;;;;5071733;28;20435;-61
2022/07/30 04:14:16;;;;;;;15.05;12.73;;;14.80;99.90;;;;;;5074753;28;20044;-61
2022/07/30 04:17:00;;;;;;;17.40;12.48;;;14.80;99.90;;;;;;5075122;28;20358;-61
2022/07/30 04:19:33;;;;;;;17.50;12.27;;;14.80;99.90;;;;;;5073216;28;20040;-61
2022/07/30 04:22:01;;;;;;;16.60;13.25;;;14.80;99.90;;;;;;5055115;28;20517;-62
2022/07/30 04:24:28;;;;;;;17.88;13.07;;;14.80;99.90;;;;;;5055003;28;20040;-61
2022/07/30 04:26:55;;;;;;;17.20;13.20;;;14.90;99.90;;;;;;5055038;28;20052;-62
2022/07/30 04:29:21;;;;;;;18.17;13.65;;;14.90;99.90;;;;;;5055045;28;20079;-61
2022/07/30 04:31:46;;;;;;;19.15;13.68;;;14.90;99.90;;;;;;5054891;28;20115;-61
2022/07/30 04:34:16;;;;;;;17.27;13.45;;;14.90;99.90;;;;;;5053717;28;20179;-61
2022/07/30 04:36:42;;;;;;;18.50;12.95;;;14.90;99.90;;;;;;5054905;28;20045;-61
2022/07/30 04:39:10;;;;;;;17.52;13.40;;;14.90;99.90;;;;;;5071408;28;20398;-61
2022/07/30 04:41:36;;;;;;;17.58;13.25;;;15.00;99.90;;;;;;5074868;28;20048;-61
2022/07/30 04:44:02;;;;;;;17.13;12.95;;;15.00;99.90;;;;;;5074684;28;20043;-61
2022/07/30 04:46:28;;;;;;;17.42;13.77;;;15.00;99.90;;;;;;5074563;28;20036;-61
2022/07/30 04:48:53;;;;;;;16.65;12.65;;;15.00;99.90;;;;;;5074586;28;20067;-61
2022/07/30 04:51:32;;;;;;;17.88;14.82;;;15.00;99.90;;;;;;5074692;28;20044;-61
2022/07/30 04:53:58;;;;;;;22.42;15.20;;;15.20;99.90;;;;;;5074401;28;20044;-62
2022/07/30 04:56:25;;;;;;;19.10;16.67;;;15.20;99.90;;;;;;5074495;28;20032;-61
2022/07/30 04:58:51;;;;;;;23.10;16.75;;;15.30;99.90;;;;;;5074304;28;20139;-61
2022/07/30 05:01:29;;;;;;;22.75;15.88;;;15.20;99.90;;;;;;5074571;28;20101;-61
2022/07/30 05:03:56;;;;;;;20.75;15.52;;;15.20;99.90;;;;;;5074455;28;20064;-61
2022/07/30 05:06:23;;;;;;;21.38;15.82;;;15.30;99.90;;;;;;5074472;28;20032;-61
2022/07/30 05:08:50;;;;;;;18.40;15.35;;;15.40;99.90;;;;;;5074228;28;20056;-62
2022/07/30 05:11:16;;;;;;;21.50;16.85;;;15.40;99.90;;;;;;5074167;28;20080;-61
2022/07/30 05:13:47;;;;;;;20.10;16.27;;;15.50;99.90;;;;;;5074135;28;20032;-61
2022/07/30 05:16:13;;;;;;;18.97;16.23;;;15.60;99.90;;;;;;5074201;28;20055;-61
2022/07/30 05:18:39;;;;;;;18.50;15.55;;;15.70;99.90;;;;;;5074028;28;20485;-61
2022/07/30 05:21:05;;;;;;;20.38;16.63;;;15.80;99.90;;;;;;5058362;28;20037;-61
2022/07/30 05:23:31;;;;;;;22.17;17.00;;;15.80;99.90;;;;;;5053613;28;20473;-61
2022/07/30 05:25:56;;;;;;;19.33;16.20;;;15.90;99.90;;;;;;5053021;28;20120;-61
2022/07/30 05:28:22;;;;;;;20.35;15.73;;;15.90;99.90;;;;;;5054058;28;20029;-61
2022/07/30 05:30:48;;;;;;;19.83;16.27;;;16.00;99.90;;;;;;5054153;28;20033;-61
2022/07/30 05:33:14;;;;;;;20.50;17.10;;;15.80;99.90;;;;;;5054233;28;20088;-60
2022/07/30 05:35:39;;;;;;;20.75;15.77;;;15.80;99.90;;;;;;5053635;28;20064;-60
2022/07/30 05:38:05;;;;;;;23.40;18.13;;;16.10;99.90;;;;;;5061233;28;20043;-61
2022/07/30 05:40:30;;;;;;;21.55;15.45;;;16.00;99.90;;;;;;5073470;28;20056;-61
2022/07/30 05:42:56;;;;;;;19.55;15.68;;;16.10;99.90;;;;;;5072532;28;20037;-62
2022/07/30 05:45:22;;;;;;;18.90;15.57;;;16.20;99.90;;;;;;5073529;28;20446;-60
2022/07/30 05:47:47;;;;;;;18.00;15.95;;;16.00;99.90;;;;;;5073582;28;20075;-61
2022/07/30 05:50:13;;;;;;;18.63;16.63;;;16.00;99.90;;;;;;5072309;28;20048;-61
2022/07/30 05:52:39;;;;;;;19.73;14.73;;;15.90;99.90;;;;;;5073446;28;20501;-61
2022/07/30 05:55:05;;;;;;;17.98;16.08;;;15.80;99.90;;;;;;5071838;28;20041;-64
2022/07/30 05:57:33;;;;;;;20.70;17.38;;;16.00;99.90;;;;;;5073385;28;20048;-61
2022/07/30 06:00:00;;;;;;;18.13;16.00;;;16.00;99.90;;;;;;5073308;28;20102;-62
2022/07/30 06:02:25;;;;;;;18.02;15.20;;;16.00;99.90;;;;;;5071837;28;20554;-61
2022/07/30 06:04:52;;;;;;;25.13;16.50;;;16.10;99.90;;;;;;5072753;28;20033;-61
2022/07/30 06:07:17;;;;;;;18.63;15.10;;;16.10;99.90;;;;;;5072649;28;20477;-61
2022/07/30 06:09:43;;;;;;;16.63;14.25;;;16.20;99.90;;;;;;5072841;28;20040;-61
2022/07/30 06:12:09;;;;;;;18.60;14.65;;;16.20;99.90;;;;;;5072940;28;20477;-61
2022/07/30 06:14:35;;;;;;;15.65;13.45;;;16.10;99.90;;;;;;5073011;28;20052;-61
2022/07/30 06:17:00;;;;;;;18.00;14.50;;;16.00;99.90;;;;;;5072915;28;20044;-61
2022/07/30 06:19:26;;;;;;;17.80;14.00;;;16.00;99.90;;;;;;5070663;28;20053;-60
2022/07/30 06:21:52;;;;;;;17.73;13.82;;;16.20;99.90;;;;;;5052768;28;20400;-61
2022/07/30 06:24:17;;;;;;;18.17;14.60;;;16.30;99.90;;;;;;5052817;28;20445;-62
2022/07/30 06:26:43;;;;;;;15.93;12.95;;;16.50;99.90;;;;;;5052859;28;20044;-61
2022/07/30 06:29:08;;;;;;;17.55;13.25;;;16.70;99.90;;;;;;5052876;28;20197;-62
2022/07/30 06:31:34;;;;;;;19.80;14.88;;;16.80;99.90;;;;;;5052826;28;20128;-61
2022/07/30 06:34:00;;;;;;;19.80;14.63;;;16.90;99.90;;;;;;5052580;28;20081;-62
2022/07/30 06:36:25;;;;;;;19.05;13.63;;;17.00;99.90;;;;;;5052344;28;20045;-62
2022/07/30 06:38:51;;;;;;;19.98;13.80;;;17.30;99.90;;;;;;5066465;28;20051;-61
2022/07/30 06:41:17;;;;;;;18.63;13.65;;;17.30;99.90;;;;;;5072681;28;20042;-61
2022/07/30 06:43:42;;;;;;;17.65;13.95;;;17.50;99.90;;;;;;5072645;28;20059;-60
2022/07/30 06:46:08;;;;;;;17.00;12.23;;;17.70;99.90;;;;;;5071947;28;20040;-61
2022/07/30 06:48:34;;;;;;;18.17;13.18;;;17.70;99.90;;;;;;5071446;28;20090;-61
2022/07/30 06:50:59;;;;;;;18.00;13.75;;;17.90;99.90;;;;;;5071432;28;20051;-61
2022/07/30 06:53:25;;;;;;;16.52;12.98;;;18.00;99.90;;;;;;5071186;28;20047;-61
2022/07/30 06:55:50;;;;;;;19.27;12.98;;;18.20;99.90;;;;;;5071673;28;20053;-60
2022/07/30 06:58:16;;;;;;;21.15;14.07;;;18.20;99.90;;;;;;5071354;28;20040;-62
2022/07/30 07:00:43;;;;;;;22.35;13.50;;;18.30;99.90;;;;;;5071380;28;20036;-61
2022/07/30 07:03:10;;;;;;;18.52;12.30;;;18.40;99.90;;;;;;5071486;28;20115;-62
2022/07/30 07:05:36;;;;;;;17.33;12.50;;;18.50;99.90;;;;;;5070265;28;20051;-61
2022/07/30 07:08:02;;;;;;;21.25;12.38;;;18.70;99.90;;;;;;5068544;28;20032;-61
2022/07/30 07:10:27;;;;;;;17.23;12.05;;;18.80;99.90;;;;;;5051186;28;20063;-61
2022/07/30 07:12:54;;;;;;;18.48;11.75;;;18.90;99.90;;;;;;5041626;28;20033;-62
2022/07/30 07:15:20;;;;;;;15.15;11.05;;;18.90;99.90;;;;;;5041392;28;20040;-61
2022/07/30 07:17:46;;;;;;;15.20;10.35;;;19.00;99.90;;;;;;5041950;28;20366;-61
2022/07/30 07:20:11;;;;;;;18.30;11.02;;;19.30;99.90;;;;;;5039474;28;20048;-62
2022/07/30 07:22:37;;;;;;;16.25;10.45;;;19.20;99.90;;;;;;5031339;28;20457;-62
2022/07/30 07:25:03;;;;;;;16.27;10.23;;;19.20;99.90;;;;;;5031548;28;20045;-61
2022/07/30 07:27:29;;;;;;;14.73;10.20;;;19.20;99.90;;;;;;5031402;28;20049;-61
2022/07/30 07:29:55;;;;;;;15.15;9.25;;;19.40;99.90;;;;;;5031211;28;20099;-62
2022/07/30 07:32:20;;;;;;;18.50;10.18;;;19.50;99.90;;;;;;5031199;28;20045;-61
2022/07/30 07:34:46;;;;;;;16.40;9.63;;;19.50;99.90;;;;;;5030887;28;20064;-61
2022/07/30 07:37:14;;;;;;;17.40;10.10;;;19.40;99.90;;;;;;5031825;28;20057;-61
2022/07/30 07:39:39;;;;;;;18.27;10.63;;;19.40;99.90;;;;;;5070901;28;20057;-61
2022/07/30 07:42:05;;;;;;;15.52;9.02;;;19.40;99.90;;;;;;5070808;28;20037;-61
2022/07/30 07:44:31;;;;;;;16.42;9.85;;;19.60;99.90;;;;;;5069112;28;20058;-61
2022/07/30 07:46:56;;;;;;;13.07;8.10;;;19.60;99.90;;;;;;5070493;28;20235;-61
2022/07/30 07:49:22;;;;;;;14.25;8.48;;;19.70;99.90;;;;;;5074072;28;20491;-60
2022/07/30 07:51:48;;;;;;;19.95;9.43;;;19.50;99.90;;;;;;5074465;28;20507;-61
2022/07/30 07:54:13;;;;;;;14.13;7.97;;;19.70;99.90;;;;;;5074825;28;20658;-61
2022/07/30 07:56:39;;;;;;;15.65;7.75;;;19.60;99.90;;;;;;5074328;28;20044;-61
2022/07/30 07:59:05;;;;;;;13.65;7.38;;;19.90;99.90;;;;;;5074433;28;20051;-61
2022/07/30 08:01:31;;;;;;;15.15;7.63;;;20.00;99.90;;;;;;5074388;28;20032;-58
2022/07/30 08:03:56;;;;;;;15.00;7.63;;;19.80;99.90;;;;;;5074185;28;20040;-61
2022/07/30 08:06:22;;;;;;;14.55;7.43;;;20.00;99.90;;;;;;5074151;28;20542;-61
2022/07/30 08:08:48;;;;;;;12.63;7.70;;;20.10;99.90;;;;;;5074712;28;20053;-62
2022/07/30 08:11:13;;;;;;;11.43;6.82;;;20.40;99.90;;;;;;5073303;28;20075;-61
2022/07/30 08:13:39;;;;;;;13.25;6.63;;;20.00;99.90;;;;;;5062728;28;20517;-62
2022/07/30 08:16:08;;;;;;;9.95;6.05;;;19.80;99.90;;;;;;5054002;28;20055;-61
2022/07/30 08:18:35;;;;;;;15.27;6.70;;;20.10;99.90;;;;;;5053889;28;20382;-61
2022/07/30 08:21:02;;;;;;;12.85;6.75;;;20.30;99.90;;;;;;5053760;28;20041;-61
2022/07/30 08:23:27;;;;;;;13.48;6.50;;;20.20;99.90;;;;;;5053726;28;20036;-62
2022/07/30 08:25:55;;;;;;;11.48;5.85;;;20.20;99.90;;;;;;5052269;28;20393;-61
2022/07/30 08:28:21;;;;;;;12.32;5.95;;;20.50;99.90;;;;;;5053878;28;20049;-62
2022/07/30 08:30:46;;;;;;;12.38;5.55;;;20.60;99.90;;;;;;5053519;28;20128;-61
2022/07/30 08:33:12;;;;;;;11.77;5.40;;;20.40;99.90;;;;;;5053497;28;20048;-60
2022/07/30 08:35:38;;;;;;;11.57;5.38;;;20.20;99.90;;;;;;5053502;28;20064;-62
2022/07/30 08:38:03;;;;;;;11.60;5.30;;;20.20;99.90;;;;;;5061074;28;20036;-61
2022/07/30 08:40:33;;;;;;;11.88;5.40;;;20.40;99.90;;;;;;5073337;28;20048;-62
2022/07/30 08:43:02;;;;;;;11.32;5.18;;;20.80;99.90;;;;;;5073651;28;20037;-62
2022/07/30 08:45:29;;;;;;;12.25;5.68;;;20.90;99.90;;;;;;5073319;28;20043;-61
2022/07/30 08:47:58;;;;;;;12.52;5.43;;;20.70;99.90;;;;;;5073471;28;20039;-62
2022/07/30 08:50:24;;;;;;;10.90;5.13;;;20.70;99.90;;;;;;5073603;28;20639;-62
2022/07/30 08:52:54;;;;;;;9.95;4.82;;;20.60;99.90;;;;;;5074257;28;20093;-62
2022/07/30 08:55:22;;;;;;;10.77;4.65;;;20.70;99.90;;;;;;5073566;28;20079;-61
2022/07/30 08:57:48;;;;;;;12.85;5.45;;;20.90;99.90;;;;;;5052953;28;20457;-62
2022/07/30 09:00:15;;;;;;;11.95;6.20;;;21.10;99.90;;;;;;5053760;28;20486;-61
2022/07/30 09:02:41;;;;;;;10.65;5.25;;;20.50;99.90;;;;;;5054278;28;20041;-61
2022/07/30 09:05:08;;;;;;;11.07;5.70;;;20.70;99.90;;;;;;5054493;28;20068;-61
2022/07/30 09:07:34;;;;;;;16.48;5.70;;;21.00;99.90;;;;;;5054349;28;20037;-62
2022/07/30 09:10:01;;;;;;;10.50;5.30;;;21.10;99.90;;;;;;5054053;28;20045;-61
2022/07/30 09:12:39;;;;;;;10.80;5.10;;;21.10;99.90;;;;;;5054048;28;20402;-61
2022/07/30 09:15:10;;;;;;;8.98;4.53;;;21.10;99.90;;;;;;5053742;28;20048;-62
2022/07/30 09:17:45;;;;;;;7.13;4.15;;;20.90;99.90;;;;;;5054067;28;20447;-60
2022/07/30 09:20:10;;;;;;;8.77;4.20;;;21.00;99.90;;;;;;5045693;28;20449;-61
2022/07/30 09:22:44;;;;;;;10.15;4.50;;;21.20;99.90;;;;;;5033766;28;20075;-61
2022/07/30 09:25:10;;;;;;;9.63;4.15;;;21.20;99.90;;;;;;5033213;28;20041;-61
2022/07/30 09:27:47;;;;;;;10.70;5.72;;;21.00;99.90;;;;;;5033171;28;20440;-61
2022/07/30 09:30:13;;;;;;;9.50;4.22;;;21.10;99.90;;;;;;5033649;28;20103;-61
2022/07/30 09:32:49;;;;;;;9.38;4.47;;;21.40;99.90;;;;;;5033798;28;20041;-61
2022/07/30 09:35:16;;;;;;;9.00;4.07;;;21.60;99.90;;;;;;5033501;28;20049;-62
2022/07/30 09:37:43;;;;;;;10.82;4.28;;;21.40;99.90;;;;;;5042660;28;20067;-61
2022/07/30 09:40:17;;;;;;;12.13;4.55;;;21.50;99.90;;;;;;5073261;28;20099;-61
2022/07/30 09:42:43;;;;;;;10.75;3.95;;;21.80;99.90;;;;;;5073510;28;20073;-62
2022/07/30 09:45:13;;;;;;;11.38;3.92;;;21.70;99.90;;;;;;5073593;28;20047;-61
2022/07/30 09:47:47;;;;;;;8.88;4.10;;;21.70;99.90;;;;;;5073491;28;20439;-62
2022/07/30 09:50:14;;;;;;;10.82;4.35;;;21.80;99.90;;;;;;5073359;28;20442;-61
2022/07/30 09:52:43;;;;;;;11.75;4.25;;;21.60;99.90;;;;;;5073154;28;20071;-62
2022/07/30 09:55:10;;;;;;;8.82;4.28;;;21.20;99.90;;;;;;5073414;28;20048;-61
2022/07/30 09:57:55;;;;;;;9.52;4.32;;;21.20;99.90;;;;;;5073053;28;20041;-62
2022/07/30 10:00:24;;;;;;;12.90;3.85;;;21.30;99.90;;;;;;5073199;28;20072;-61
2022/07/30 10:02:50;;;;;;;9.65;3.85;;;21.50;99.90;;;;;;5071935;28;20405;-61
2022/07/30 10:05:20;;;;;;;8.98;4.38;;;21.90;99.90;;;;;;5073051;28;20040;-62
2022/07/30 10:07:53;;;;;;;9.95;4.10;;;22.10;99.90;;;;;;5072790;28;20060;-60
2022/07/30 10:10:22;;;;;;;9.05;3.83;;;22.10;99.90;;;;;;5072260;28;20439;-61
2022/07/30 10:12:51;;;;;;;9.93;4.28;;;22.30;99.90;;;;;;5072677;28;20047;-61
2022/07/30 10:15:20;;;;;;;11.65;4.60;;;22.10;99.90;;;;;;5072713;28;20051;-62
2022/07/30 10:17:47;;;;;;;11.15;4.20;;;22.10;99.90;;;;;;5072793;28;20041;-61
2022/07/30 10:20:13;;;;;;;8.32;3.72;;;22.10;99.90;;;;;;5062798;28;20481;-62
2022/07/30 10:22:40;;;;;;;10.80;4.32;;;22.20;99.90;;;;;;5052586;28;20041;-61
2022/07/30 10:25:07;;;;;;;8.00;3.28;;;22.40;99.90;;;;;;5052389;28;20041;-61
2022/07/30 10:27:32;;;;;;;9.25;3.40;;;22.60;99.90;;;;;;5051123;28;20041;-62
2022/07/30 10:29:59;;;;;;;11.80;4.20;;;22.50;99.90;;;;;;5052570;28;20440;-61
2022/07/30 10:32:26;;;;;;;8.55;3.70;;;22.40;99.90;;;;;;5052662;28;20033;-62
2022/07/30 10:34:52;;;;;;;9.68;3.33;;;22.70;99.90;;;;;;5052422;28;20107;-62
2022/07/30 10:37:19;;;;;;;10.85;3.90;;;22.50;99.90;;;;;;5053453;28;20048;-61
2022/07/30 10:40:11;;;;;;;8.60;4.10;;;22.60;99.90;;;;;;5070906;28;20052;-61
2022/07/30 10:42:49;;;;;;;10.93;3.80;;;22.20;99.90;;;;;;5072614;28;20392;-62
2022/07/30 10:45:21;;;;;;;8.95;3.80;;;22.30;99.90;;;;;;5072222;28;20082;-62
2022/07/30 10:47:49;;;;;;;9.25;4.13;;;22.40;99.90;;;;;;5072241;28;20437;-61
2022/07/30 10:50:21;;;;;;;9.60;3.85;;;21.90;99.90;;;;;;5072273;28;20044;-61
2022/07/30 10:52:55;;;;;;;8.02;3.78;;;21.80;99.90;;;;;;5072217;28;20044;-62
2022/07/30 10:55:33;;;;;;;9.98;4.05;;;21.90;99.90;;;;;;5072155;28;20079;-60
2022/07/30 10:58:08;;;;;;;8.55;3.97;;;21.80;99.90;;;;;;5072118;28;20043;-61
2022/07/30 11:00:55;;;;;;;9.98;3.53;;;21.80;99.90;;;;;;5072026;28;20043;-61
2022/07/30 11:03:30;;;;;;;8.30;3.80;;;21.90;99.90;;;;;;5071788;28;20041;-62
2022/07/30 11:06:14;;;;;;;10.50;3.78;;;22.20;99.90;;;;;;5072092;28;20040;-61
2022/07/30 11:08:42;;;;;;;9.57;3.70;;;22.40;99.90;;;;;;5070709;28;20052;-61
2022/07/30 11:11:30;;;;;;;8.15;2.95;;;22.60;99.90;;;;;;5071831;28;20040;-62
2022/07/30 11:13:58;;;;;;;10.80;3.30;;;22.20;99.90;;;;;;5066296;28;20048;-61
2022/07/30 11:16:44;;;;;;;9.05;2.72;;;22.40;99.90;;;;;;5071796;28;20036;-62
2022/07/30 11:19:23;;;;;;;9.18;3.60;;;22.80;99.90;;;;;;5071700;28;20049;-61
2022/07/30 11:22:22;;;;;;;7.47;3.45;;;22.80;99.90;;;;;;5031441;28;20053;-62
2022/07/30 11:24:47;;;;;;;10.82;3.70;;;22.80;99.90;;;;;;5034595;28;20091;-62
2022/07/30 11:27:47;;;;;;;9.60;3.60;;;22.60;99.90;;;;;;5034875;28;20037;-62
2022/07/30 11:30:15;;;;;;;9.27;3.15;;;22.60;99.90;;;;;;5035998;28;20045;-62
2022/07/30 11:32:42;;;;;;;9.35;3.72;;;23.00;99.90;;;;;;5035661;28;20147;-62
2022/07/30 11:35:11;;;;;;;10.82;3.60;;;22.90;99.90;;;;;;5035739;28;20136;-62
2022/07/30 11:37:55;;;;;;;7.55;3.35;;;23.20;99.90;;;;;;5043804;28;20036;-62
2022/07/30 11:40:24;;;;;;;10.80;3.47;;;23.50;99.90;;;;;;5075453;28;20083;-62
2022/07/30 11:42:51;;;;;;;9.63;3.90;;;23.20;99.90;;;;;;5075025;28;20040;-62
2022/07/30 11:45:16;;;;;;;6.75;3.40;;;23.00;99.90;;;;;;5074745;28;20112;-61
2022/07/30 11:47:54;;;;;;;7.82;3.33;;;23.50;99.90;;;;;;5074933;28;20112;-61
2022/07/30 11:50:29;;;;;;;10.82;3.17;;;23.10;99.90;;;;;;5074841;28;20315;-62
2022/07/30 11:53:00;;;;;;;7.90;3.15;;;22.90;99.90;;;;;;5074907;28;20040;-62
2022/07/30 11:55:35;;;;;;;7.55;3.20;;;22.90;99.90;;;;;;5073376;28;20412;-62
2022/07/30 11:58:03;;;;;;;6.47;3.15;;;23.10;99.90;;;;;;5074759;28;20064;-61
2022/07/30 12:00:35;;;;;;;7.35;3.38;;;23.10;99.90;;;;;;5074645;28;20044;-61
2022/07/30 12:03:06;;;;;;;;;;;23.50;99.90;;;;;;5073945;28;20482;-62
2022/07/30 12:05:32;;;;;;;9.55;3.35;;;23.50;99.90;;;;;;5074434;28;19916;-62
2022/07/30 12:07:58;;;;;;;7.72;3.20;;;23.70;99.90;;;;;;5074245;28;20047;-61
2022/07/30 12:10:24;;;;;;;8.75;3.30;;;23.70;99.90;;;;;;5074518;28;20040;-61
2022/07/30 12:12:50;;;;;;;7.75;3.50;;;23.70;99.90;;;;;;5073168;28;20040;-62
2022/07/30 12:15:32;;;;;;;6.88;3.20;;;23.60;99.90;;;;;;5072526;28;20127;-61
2022/07/30 12:17:59;;;;;;;7.30;3.05;;;23.30;99.90;;;;;;5055250;28;20112;-62
2022/07/30 12:20:26;;;;;;;9.52;3.47;;;23.10;99.90;;;;;;5044272;28;20516;-62
2022/07/30 12:22:52;;;;;;;6.65;3.35;;;22.80;99.90;;;;;;5056317;28;20048;-61
2022/07/30 12:25:19;;;;;;;6.72;2.45;;;22.70;99.90;;;;;;5039956;28;20037;-61
2022/07/30 12:27:46;;;;;;;7.50;2.88;;;22.90;99.90;;;;;;5043424;28;20033;-61
2022/07/30 12:30:14;;;;;;;6.00;2.95;;;22.80;99.90;;;;;;5044665;28;20064;-62
2022/07/30 12:32:40;;;;;;;6.72;3.03;;;22.90;99.90;;;;;;5043231;28;20047;-61
2022/07/30 12:35:07;;;;;;;6.68;3.28;;;23.00;99.90;;;;;;5042037;28;20067;-61
2022/07/30 12:37:33;;;;;;;8.75;2.67;;;23.00;99.90;;;;;;5047829;28;20049;-62
2022/07/30 12:40:13;;;;;;;5.78;2.50;;;23.30;99.90;;;;;;5043713;28;20375;-62
2022/07/30 12:42:52;;;;;;;6.50;3.20;;;23.50;99.90;;;;;;5043059;28;20073;-62